createdAt,value
2023-01-13T00:00:18.967Z,100771.19
2023-01-13T00:01:36.215Z,100775.13
2023-01-13T00:02:41.592Z,100775.22
2023-01-13T00:03:44.973Z,100769.22
2023-01-13T00:04:47.872Z,100773.38
2023-01-13T00:05:50.696Z,100771.28
2023-01-13T00:06:54.561Z,100765.22
2023-01-13T00:08:06.641Z,100767.09
2023-01-13T00:09:09.775Z,100766.59
2023-01-13T00:10:16.003Z,100762.44
2023-01-13T00:11:22.641Z,100766.28
2023-01-13T00:12:25.570Z,100757.19
2023-01-13T00:13:28.467Z,100758.19
2023-01-13T00:14:34.658Z,100759.50
2023-01-13T00:15:37.631Z,100757.25
2023-01-13T00:16:41.041Z,100761.84
2023-01-13T00:17:43.779Z,100755.56
2023-01-13T00:18:51.801Z,100761.56
2023-01-13T00:19:54.441Z,100759.25
2023-01-13T00:21:09.054Z,100758.22
2023-01-13T00:22:11.619Z,100761.25
2023-01-13T00:23:14.220Z,100760.31
2023-01-13T00:24:16.941Z,100762.44
2023-01-13T00:25:19.828Z,100763.97
2023-01-13T00:26:25.260Z,100760.63
2023-01-13T00:27:29.660Z,100767.66
2023-01-13T00:28:33.069Z,100760.53
2023-01-13T00:29:35.924Z,100764.25
2023-01-13T00:30:38.789Z,100763.97
2023-01-13T00:31:41.518Z,100763.16
2023-01-13T00:32:44.352Z,100756.63
2023-01-13T00:33:49.411Z,100752.47
2023-01-13T00:34:52.259Z,100759.78
2023-01-13T00:35:59.726Z,100757.97
2023-01-13T00:37:02.721Z,100752.34
2023-01-13T00:38:05.336Z,100749.13
2023-01-13T00:39:09.224Z,100750.44
2023-01-13T00:40:12.696Z,100749.44
2023-01-13T00:41:18.537Z,100757.13
2023-01-13T00:42:39.991Z,100753.66
2023-01-13T00:43:43.475Z,100754.13
2023-01-13T00:44:46.332Z,100753.84
2023-01-13T00:45:51.752Z,100749.75
2023-01-13T00:46:55.617Z,100761.34
2023-01-13T00:47:58.334Z,100755.69
2023-01-13T00:49:02.283Z,100753.72
2023-01-13T00:50:05.337Z,100761.06
2023-01-13T00:51:17.567Z,100757.38
2023-01-13T00:52:20.427Z,100760.00
2023-01-13T00:53:23.308Z,100760.78
2023-01-13T00:54:29.099Z,100755.84
2023-01-13T00:55:35.329Z,100754.50
2023-01-13T00:56:40.775Z,100749.22
2023-01-13T00:57:44.042Z,100750.34
2023-01-13T00:58:47.885Z,100743.19
2023-01-13T00:59:50.742Z,100750.34
2023-01-13T01:00:53.714Z,100752.34
2023-01-13T01:01:57.221Z,100748.50
2023-01-13T01:03:00.137Z,100755.31
2023-01-13T01:04:05.708Z,100749.72
2023-01-13T01:05:08.806Z,100757.13
2023-01-13T01:06:15.196Z,100748.41
2023-01-13T01:07:17.780Z,100752.88
2023-01-13T01:08:23.573Z,100750.53
2023-01-13T01:09:33.048Z,100748.97
2023-01-13T01:10:35.841Z,100750.53
2023-01-13T01:11:38.671Z,100753.16
2023-01-13T01:12:41.362Z,100750.53
2023-01-13T01:13:45.324Z,100749.31
2023-01-13T01:14:48.089Z,100753.16
2023-01-13T01:15:52.986Z,100744.22
2023-01-13T01:16:55.957Z,100740.78
2023-01-13T01:17:58.718Z,100741.59
2023-01-13T01:19:02.437Z,100745.59
2023-01-13T01:20:05.569Z,100747.13
2023-01-13T01:21:16.327Z,100742.97
2023-01-13T01:22:20.736Z,100743.97
2023-01-13T01:23:23.403Z,100748.19
2023-01-13T01:24:26.277Z,100743.75
2023-01-13T01:25:29.068Z,100740.88
2023-01-13T01:26:32.511Z,100739.28
2023-01-13T01:27:35.451Z,100751.81
2023-01-13T01:28:38.183Z,100744.22
2023-01-13T01:29:40.926Z,100740.88
2023-01-13T01:30:43.655Z,100743.84
2023-01-13T01:31:46.696Z,100749.22
2023-01-13T01:32:49.544Z,100747.91
2023-01-13T01:33:53.644Z,100743.19
2023-01-13T01:34:56.315Z,100734.06
2023-01-13T01:36:01.617Z,100737.47
2023-01-13T01:37:04.285Z,100729.38
2023-01-13T01:38:07.003Z,100728.03
2023-01-13T01:39:11.027Z,100733.78
2023-01-13T01:40:13.921Z,100732.09
2023-01-13T01:41:20.057Z,100732.41
2023-01-13T01:42:41.633Z,100724.63
2023-01-13T01:44:03.081Z,100729.16
2023-01-13T01:45:20.432Z,100723.69
2023-01-13T01:46:23.402Z,100718.19
2023-01-13T01:47:28.433Z,100717.22
2023-01-13T01:48:42.842Z,100715.84
2023-01-13T01:49:46.763Z,100716.84
2023-01-13T01:50:49.597Z,100715.47
2023-01-13T01:51:58.834Z,100723.94
2023-01-13T01:53:10.149Z,100716.16
2023-01-13T01:54:18.947Z,100713.56
2023-01-13T01:55:30.322Z,100710.66
2023-01-13T01:56:35.108Z,100712.97
2023-01-13T01:57:37.899Z,100718.00
2023-01-13T01:58:50.254Z,100712.78
2023-01-13T01:59:53.973Z,100717.00
2023-01-13T02:00:57.475Z,100714.72
2023-01-13T02:02:00.619Z,100709.97
2023-01-13T02:03:05.374Z,100712.91
2023-01-13T02:04:14.191Z,100715.97
2023-01-13T02:05:17.778Z,100713.38
2023-01-13T02:06:20.506Z,100724.00
2023-01-13T02:07:34.798Z,100716.94
2023-01-13T02:08:41.829Z,100712.31
2023-01-13T02:09:44.850Z,100710.41
2023-01-13T02:10:53.490Z,100711.47
2023-01-13T02:12:17.292Z,100705.22
2023-01-13T02:13:26.408Z,100700.78
2023-01-13T02:14:30.667Z,100699.84
2023-01-13T02:15:42.718Z,100705.53
2023-01-13T02:17:09.224Z,100702.72
2023-01-13T02:18:47.044Z,100692.47
2023-01-13T02:20:27.745Z,100689.84
2023-01-13T02:21:55.822Z,100697.22
2023-01-13T02:23:59.200Z,100699.25
2023-01-13T02:25:35.798Z,100698.50
2023-01-13T02:26:57.617Z,100697.28
2023-01-13T02:28:45.480Z,100689.44
2023-01-13T02:30:25.671Z,100689.66
2023-01-13T02:31:44.391Z,100694.09
2023-01-13T02:33:03.377Z,100689.59
2023-01-13T02:34:12.366Z,100693.53
2023-01-13T02:35:27.879Z,100690.13
2023-01-13T02:36:55.355Z,100694.03
2023-01-13T02:37:59.995Z,100692.84
2023-01-13T02:39:42.057Z,100687.19
2023-01-13T02:40:50.447Z,100689.50
2023-01-13T02:42:28.934Z,100688.72
2023-01-13T02:43:57.669Z,100686.38
2023-01-13T02:45:26.227Z,100684.81
2023-01-13T02:46:35.184Z,100682.16
2023-01-13T02:47:40.556Z,100683.72
2023-01-13T02:48:46.230Z,100677.09
2023-01-13T02:49:56.121Z,100676.56
2023-01-13T02:51:06.208Z,100681.78
2023-01-13T02:52:32.775Z,100678.44
2023-01-13T02:53:47.345Z,100681.78
2023-01-13T02:55:03.749Z,100671.50
2023-01-13T02:56:12.138Z,100682.53
2023-01-13T02:57:29.243Z,100673.94
2023-01-13T02:58:55.466Z,100677.50
2023-01-13T03:00:00.159Z,100680.16
2023-01-13T03:01:02.739Z,100680.91
2023-01-13T03:02:13.720Z,100683.22
2023-01-13T03:03:16.740Z,100676.22
2023-01-13T03:04:51.208Z,100682.78
2023-01-13T03:06:16.685Z,100673.00
2023-01-13T03:07:46.794Z,100672.44
2023-01-13T03:09:02.451Z,100672.84
2023-01-13T03:10:27.488Z,100677.00
2023-01-13T03:12:23.329Z,100677.13
2023-01-13T03:13:44.067Z,100670.38
2023-01-13T03:15:04.676Z,100683.47
2023-01-13T03:16:28.253Z,100683.66
2023-01-13T03:17:56.148Z,100676.69
2023-01-13T03:19:41.655Z,100672.91
2023-01-13T03:20:57.147Z,100678.41
2023-01-13T03:22:39.809Z,100676.69
2023-01-13T03:24:03.630Z,100683.03
2023-01-13T03:25:20.832Z,100675.78
2023-01-13T03:26:44.979Z,100671.22
2023-01-13T03:28:22.765Z,100669.91
2023-01-13T03:29:44.975Z,100671.38
2023-01-13T03:31:00.788Z,100669.25
2023-01-13T03:32:16.321Z,100673.00
2023-01-13T03:33:25.881Z,100665.16
2023-01-13T03:34:42.188Z,100666.00
2023-01-13T03:35:49.672Z,100675.41
2023-01-13T03:37:04.676Z,100671.50
2023-01-13T03:38:15.965Z,100672.56
2023-01-13T03:39:36.356Z,100669.91
2023-01-13T03:40:52.557Z,100674.34
2023-01-13T03:42:10.730Z,100678.81
2023-01-13T03:43:41.127Z,100669.94
2023-01-13T03:44:47.414Z,100671.50
2023-01-13T03:45:56.146Z,100673.00
2023-01-13T03:47:28.328Z,100672.44
2023-01-13T03:48:34.919Z,100686.56
2023-01-13T03:49:50.120Z,100675.31
2023-01-13T03:51:01.891Z,100666.94
2023-01-13T03:52:11.913Z,100667.19
2023-01-13T03:53:26.561Z,100673.72
2023-01-13T03:54:41.621Z,100669.03
2023-01-13T03:56:01.782Z,100669.97
2023-01-13T03:57:19.886Z,100667.88
2023-01-13T03:58:31.444Z,100667.34
2023-01-13T03:59:49.670Z,100671.31
2023-01-13T04:01:28.867Z,100667.19
2023-01-13T04:02:56.540Z,100667.47
2023-01-13T04:04:33.355Z,100667.41
2023-01-13T04:05:41.823Z,100669.06
2023-01-13T04:06:51.046Z,100668.28
2023-01-13T04:08:10.307Z,100674.13
2023-01-13T04:09:19.449Z,100673.31
2023-01-13T04:10:32.870Z,100667.03
2023-01-13T04:11:43.040Z,100676.72
2023-01-13T04:13:01.358Z,100677.69
2023-01-13T04:14:05.156Z,100673.78
2023-01-13T04:15:08.238Z,100672.25
2023-01-13T04:16:12.427Z,100663.13
2023-01-13T04:17:16.156Z,100675.41
2023-01-13T04:18:25.414Z,100672.69
2023-01-13T04:19:28.330Z,100669.84
2023-01-13T04:20:31.217Z,100670.44
2023-01-13T04:21:35.045Z,100665.75
2023-01-13T04:22:37.465Z,100671.41
2023-01-13T04:23:40.044Z,100671.69
2023-01-13T04:24:42.480Z,100674.13
2023-01-13T04:25:46.407Z,100669.97
2023-01-13T04:26:48.792Z,100671.03
2023-01-13T04:27:51.323Z,100663.06
2023-01-13T04:28:57.172Z,100672.53
2023-01-13T04:29:59.607Z,100674.38
2023-01-13T04:31:02.518Z,100678.03
2023-01-13T04:32:04.946Z,100678.69
2023-01-13T04:33:07.658Z,100679.63
2023-01-13T04:34:11.193Z,100677.59
2023-01-13T04:35:13.745Z,100673.59
2023-01-13T04:36:16.373Z,100667.56
2023-01-13T04:37:19.073Z,100681.97
2023-01-13T04:38:22.959Z,100685.44
2023-01-13T04:39:25.385Z,100679.66
2023-01-13T04:40:27.935Z,100681.97
2023-01-13T04:41:53.067Z,100684.09
2023-01-13T04:42:55.622Z,100676.72
2023-01-13T04:43:58.095Z,100676.22
2023-01-13T04:45:00.633Z,100684.56
2023-01-13T04:46:03.340Z,100688.28
2023-01-13T04:47:06.100Z,100675.00
2023-01-13T04:48:08.998Z,100688.34
2023-01-13T04:49:11.542Z,100687.53
2023-01-13T04:50:14.939Z,100684.94
2023-01-13T04:51:17.349Z,100678.72
2023-01-13T04:52:19.787Z,100690.16
2023-01-13T04:53:22.183Z,100683.38
2023-01-13T04:54:24.684Z,100680.44
2023-01-13T04:55:27.488Z,100676.81
2023-01-13T04:56:29.997Z,100678.59
2023-01-13T04:57:35.077Z,100679.66
2023-01-13T04:58:39.206Z,100676.81
2023-01-13T04:59:42.335Z,100671.84
2023-01-13T05:00:44.774Z,100666.72
2023-01-13T05:01:47.379Z,100666.72
2023-01-13T05:02:51.288Z,100669.97
2023-01-13T05:03:53.701Z,100678.41
2023-01-13T05:04:57.119Z,100673.16
2023-01-13T05:05:59.617Z,100670.25
2023-01-13T05:07:02.137Z,100678.41
2023-01-13T05:08:05.748Z,100666.63
2023-01-13T05:09:08.445Z,100671.63
2023-01-13T05:10:12.001Z,100669.53
2023-01-13T05:11:33.446Z,100681.56
2023-01-13T05:12:54.666Z,100675.03
2023-01-13T05:14:15.912Z,100674.47
2023-01-13T05:15:36.930Z,100679.09
2023-01-13T05:16:58.691Z,100678.28
2023-01-13T05:18:01.939Z,100677.59
2023-01-13T05:19:04.375Z,100675.16
2023-01-13T05:20:07.430Z,100681.97
2023-01-13T05:21:30.459Z,100682.81
2023-01-13T05:22:51.728Z,100691.16
2023-01-13T05:24:12.987Z,100692.69
2023-01-13T05:25:21.671Z,100679.88
2023-01-13T05:26:24.570Z,100688.13
2023-01-13T05:27:27.680Z,100683.00
2023-01-13T05:28:34.461Z,100683.78
2023-01-13T05:29:37.540Z,100680.16
2023-01-13T05:30:42.757Z,100690.34
2023-01-13T05:31:45.197Z,100690.56
2023-01-13T05:32:47.932Z,100689.56
2023-01-13T05:33:50.566Z,100683.97
2023-01-13T05:34:53.097Z,100683.00
2023-01-13T05:35:55.632Z,100685.81
2023-01-13T05:36:58.302Z,100689.56
2023-01-13T05:38:03.505Z,100694.44
2023-01-13T05:39:06.069Z,100688.28
2023-01-13T05:40:27.769Z,100687.22
2023-01-13T05:41:48.871Z,100688.75
2023-01-13T05:43:20.124Z,100692.03
2023-01-13T05:44:23.919Z,100682.34
2023-01-13T05:45:26.564Z,100698.59
2023-01-13T05:46:29.430Z,100686.25
2023-01-13T05:47:32.654Z,100693.38
2023-01-13T05:48:43.111Z,100699.59
2023-01-13T05:49:47.727Z,100707.50
2023-01-13T05:50:50.629Z,100694.66
2023-01-13T05:51:53.298Z,100700.06
2023-01-13T05:52:55.770Z,100694.38
2023-01-13T05:53:59.549Z,100702.28
2023-01-13T05:55:02.346Z,100705.41
2023-01-13T05:56:05.906Z,100695.91
2023-01-13T05:57:11.525Z,100702.09
2023-01-13T05:58:16.418Z,100703.56
2023-01-13T05:59:19.268Z,100708.50
2023-01-13T06:00:22.900Z,100704.34
2023-01-13T06:01:25.639Z,100709.56
2023-01-13T06:02:31.246Z,100712.72
2023-01-13T06:03:33.918Z,100704.78
2023-01-13T06:04:36.468Z,100716.09
2023-01-13T06:05:39.439Z,100705.09
2023-01-13T06:06:43.656Z,100704.44
2023-01-13T06:07:46.513Z,100713.78
2023-01-13T06:08:49.818Z,100705.69
2023-01-13T06:09:52.714Z,100703.81
2023-01-13T06:10:55.373Z,100711.06
2023-01-13T06:11:58.050Z,100703.50
2023-01-13T06:13:00.893Z,100706.44
2023-01-13T06:14:06.012Z,100706.38
2023-01-13T06:15:09.024Z,100710.84
2023-01-13T06:16:11.741Z,100711.63
2023-01-13T06:17:16.279Z,100717.63
2023-01-13T06:18:20.165Z,100713.19
2023-01-13T06:19:23.143Z,100715.88
2023-01-13T06:20:26.017Z,100718.91
2023-01-13T06:21:33.238Z,100717.19
2023-01-13T06:22:40.158Z,100717.84
2023-01-13T06:23:43.000Z,100718.91
2023-01-13T06:24:46.655Z,100725.44
2023-01-13T06:26:13.911Z,100725.63
2023-01-13T06:27:18.788Z,100723.41
2023-01-13T06:28:21.204Z,100724.69
2023-01-13T06:29:23.732Z,100727.28
2023-01-13T06:30:38.691Z,100722.66
2023-01-13T06:31:41.454Z,100724.41
2023-01-13T06:32:49.527Z,100724.19
2023-01-13T06:34:06.157Z,100733.31
2023-01-13T06:35:12.097Z,100732.00
2023-01-13T06:36:19.631Z,100728.38
2023-01-13T06:37:26.315Z,100732.84
2023-01-13T06:38:38.679Z,100727.56
2023-01-13T06:39:41.640Z,100735.19
2023-01-13T06:40:44.295Z,100735.19
2023-01-13T06:42:09.045Z,100723.66
2023-01-13T06:43:17.874Z,100737.28
2023-01-13T06:44:21.987Z,100729.69
2023-01-13T06:45:27.202Z,100730.28
2023-01-13T06:46:29.813Z,100732.84
2023-01-13T06:47:32.535Z,100734.16
2023-01-13T06:48:36.165Z,100727.66
2023-01-13T06:49:38.693Z,100737.06
2023-01-13T06:50:42.515Z,100728.16
2023-01-13T06:51:47.822Z,100725.25
2023-01-13T06:52:50.462Z,100732.41
2023-01-13T06:53:53.123Z,100731.66
2023-01-13T06:54:55.742Z,100730.31
2023-01-13T06:56:01.182Z,100725.88
2023-01-13T06:57:03.788Z,100726.69
2023-01-13T06:58:06.712Z,100723.13
2023-01-13T06:59:12.476Z,100732.09
2023-01-13T07:00:18.051Z,100724.13
2023-01-13T07:01:20.781Z,100736.88
2023-01-13T07:02:23.663Z,100734.44
2023-01-13T07:03:28.761Z,100738.47
2023-01-13T07:04:41.888Z,100744.72
2023-01-13T07:05:57.289Z,100746.91
2023-01-13T07:07:00.371Z,100744.50
2023-01-13T07:08:03.370Z,100742.91
2023-01-13T07:09:06.888Z,100745.53
2023-01-13T07:10:13.348Z,100751.81
2023-01-13T07:11:17.034Z,100754.75
2023-01-13T07:13:15.305Z,100746.91
2023-01-13T07:14:46.028Z,100739.06
2023-01-13T07:16:04.630Z,100740.88
2023-01-13T07:17:28.240Z,100748.47
2023-01-13T07:18:34.806Z,100750.25
2023-01-13T07:19:37.747Z,100748.97
2023-01-13T07:20:44.917Z,100755.19
2023-01-13T07:22:26.620Z,100757.91
2023-01-13T07:23:32.756Z,100745.97
2023-01-13T07:24:35.571Z,100743.22
2023-01-13T07:25:38.681Z,100744.56
2023-01-13T07:26:50.241Z,100751.41
2023-01-13T07:28:02.587Z,100751.69
2023-01-13T07:29:24.520Z,100758.50
2023-01-13T07:30:30.075Z,100747.25
2023-01-13T07:31:33.463Z,100759.53
2023-01-13T07:32:42.634Z,100742.28
2023-01-13T07:33:45.549Z,100755.09
2023-01-13T07:34:59.263Z,100742.44
2023-01-13T07:36:11.069Z,100751.91
2023-01-13T07:37:14.094Z,100745.56
2023-01-13T07:38:16.950Z,100745.06
2023-01-13T07:39:19.566Z,100747.44
2023-01-13T07:40:22.272Z,100748.81
2023-01-13T07:41:45.749Z,100751.03
2023-01-13T07:43:07.727Z,100746.13
2023-01-13T07:44:13.287Z,100751.59
2023-01-13T07:45:15.883Z,100746.81
2023-01-13T07:46:19.063Z,100744.72
2023-01-13T07:47:27.603Z,100736.25
2023-01-13T07:48:31.549Z,100749.34
2023-01-13T07:49:34.418Z,100749.81
2023-01-13T07:50:46.569Z,100746.44
2023-01-13T07:51:49.289Z,100748.78
2023-01-13T07:52:58.232Z,100745.97
2023-01-13T07:54:00.897Z,100749.97
2023-01-13T07:55:03.882Z,100751.91
2023-01-13T07:56:09.717Z,100751.03
2023-01-13T07:57:15.298Z,100755.16
2023-01-13T07:58:18.416Z,100763.97
2023-01-13T07:59:34.444Z,100763.97
2023-01-13T08:00:38.473Z,100756.72
2023-01-13T08:01:41.315Z,100759.25
2023-01-13T08:02:54.508Z,100766.09
2023-01-13T08:03:57.872Z,100764.44
2023-01-13T08:05:00.928Z,100770.00
2023-01-13T08:06:03.696Z,100760.50
2023-01-13T08:07:09.991Z,100771.75
2023-01-13T08:08:16.436Z,100771.50
2023-01-13T08:09:19.817Z,100774.16
2023-01-13T08:10:27.275Z,100765.03
2023-01-13T08:11:30.414Z,100767.06
2023-01-13T08:13:00.514Z,100769.16
2023-01-13T08:14:05.130Z,100770.41
2023-01-13T08:15:16.436Z,100766.22
2023-01-13T08:16:19.202Z,100759.16
2023-01-13T08:17:22.288Z,100764.78
2023-01-13T08:18:27.783Z,100773.78
2023-01-13T08:19:32.993Z,100771.75
2023-01-13T08:20:38.352Z,100765.84
2023-01-13T08:21:41.325Z,100763.50
2023-01-13T08:22:47.649Z,100756.66
2023-01-13T08:24:01.402Z,100759.22
2023-01-13T08:25:06.819Z,100764.25
2023-01-13T08:26:13.108Z,100776.72
2023-01-13T08:27:15.955Z,100772.09
2023-01-13T08:29:50.442Z,100763.84
2023-01-13T08:30:54.613Z,100762.69
2023-01-13T08:31:57.665Z,100768.16
2023-01-13T08:33:02.741Z,100770.75
2023-01-13T08:34:10.516Z,100775.34
2023-01-13T08:35:16.003Z,100770.06
2023-01-13T08:36:21.114Z,100776.84
2023-01-13T08:37:26.632Z,100767.19
2023-01-13T08:38:32.595Z,100771.56
2023-01-13T08:39:36.363Z,100763.44
2023-01-13T08:40:40.942Z,100783.25
2023-01-13T08:41:55.867Z,100780.94
2023-01-13T08:42:59.358Z,100779.34
2023-01-13T08:44:02.020Z,100781.97
2023-01-13T08:45:06.525Z,100779.41
2023-01-13T08:46:09.705Z,100783.56
2023-01-13T08:47:12.570Z,100788.25
2023-01-13T08:48:15.149Z,100785.06
2023-01-13T08:49:18.683Z,100782.16
2023-01-13T08:50:26.642Z,100791.81
2023-01-13T08:51:29.715Z,100788.25
2023-01-13T08:52:35.479Z,100785.28
2023-01-13T08:53:40.806Z,100786.13
2023-01-13T08:54:43.598Z,100780.06
2023-01-13T08:55:46.873Z,100787.59
2023-01-13T08:56:49.689Z,100790.88
2023-01-13T08:57:54.451Z,100792.94
2023-01-13T08:59:01.820Z,100796.75
2023-01-13T09:00:06.722Z,100797.31
2023-01-13T09:01:14.150Z,100792.81
2023-01-13T09:02:21.712Z,100783.94
2023-01-13T09:03:24.535Z,100789.19
2023-01-13T09:04:29.285Z,100787.59
2023-01-13T09:05:35.288Z,100785.72
2023-01-13T09:06:38.893Z,100787.28
2023-01-13T09:07:42.756Z,100784.03
2023-01-13T09:08:45.929Z,100782.81
2023-01-13T09:09:48.628Z,100784.09
2023-01-13T09:10:52.024Z,100780.16
2023-01-13T09:12:13.705Z,100779.00
2023-01-13T09:13:20.527Z,100782.34
2023-01-13T09:14:31.897Z,100784.91
2023-01-13T09:15:46.081Z,100776.16
2023-01-13T09:16:49.034Z,100778.78
2023-01-13T09:17:57.721Z,100783.75
2023-01-13T09:19:03.382Z,100780.63
2023-01-13T09:20:16.553Z,100771.13
2023-01-13T09:21:28.583Z,100772.72
2023-01-13T09:22:51.924Z,100773.72
2023-01-13T09:23:56.593Z,100768.97
2023-01-13T09:24:59.467Z,100770.91
2023-01-13T09:26:02.115Z,100765.44
2023-01-13T09:27:04.907Z,100776.28
2023-01-13T09:28:10.954Z,100777.53
2023-01-13T09:29:17.971Z,100786.16
2023-01-13T09:30:20.969Z,100773.06
2023-01-13T09:31:23.774Z,100775.41
2023-01-13T09:32:26.855Z,100784.31
2023-01-13T09:33:55.446Z,100780.34
2023-01-13T09:35:00.570Z,100785.81
2023-01-13T09:36:06.410Z,100792.97
2023-01-13T09:37:09.605Z,100789.84
2023-01-13T09:38:12.497Z,100785.66
2023-01-13T09:39:15.787Z,100791.06
2023-01-13T09:40:22.898Z,100796.31
2023-01-13T09:41:47.854Z,100803.00
2023-01-13T09:43:18.998Z,100803.16
2023-01-13T09:44:29.874Z,100801.25
2023-01-13T09:45:42.834Z,100805.72
2023-01-13T09:47:03.250Z,100804.28
2023-01-13T09:48:22.454Z,100803.00
2023-01-13T09:49:54.397Z,100811.16
2023-01-13T09:51:09.930Z,100802.72
2023-01-13T09:52:26.920Z,100798.66
2023-01-13T09:53:45.379Z,100798.53
2023-01-13T09:54:54.739Z,100799.31
2023-01-13T09:55:59.414Z,100795.78
2023-01-13T09:57:02.064Z,100800.44
2023-01-13T09:58:14.182Z,100806.03
2023-01-13T09:59:20.380Z,100803.69
2023-01-13T10:00:35.803Z,100811.78
2023-01-13T10:02:17.477Z,100813.41
2023-01-13T10:03:26.957Z,100812.47
2023-01-13T10:04:29.948Z,100812.47
2023-01-13T10:05:41.606Z,100807.81
2023-01-13T10:06:53.202Z,100803.38
2023-01-13T10:08:49.524Z,100800.81
2023-01-13T10:09:58.875Z,100803.56
2023-01-13T10:11:24.149Z,100792.06
2023-01-13T10:13:06.387Z,100800.19
2023-01-13T10:14:20.825Z,100784.28
2023-01-13T10:15:26.897Z,100795.44
2023-01-13T10:16:43.212Z,100800.69
2023-01-13T10:17:58.763Z,100791.97
2023-01-13T10:19:47.601Z,100788.16
2023-01-13T10:21:06.903Z,100791.81
2023-01-13T10:22:47.048Z,100789.09
2023-01-13T10:24:19.062Z,100786.22
2023-01-13T10:25:25.123Z,100787.41
2023-01-13T10:26:34.570Z,100794.00
2023-01-13T10:27:41.096Z,100799.31
2023-01-13T10:28:52.092Z,100797.75
2023-01-13T10:29:54.796Z,100799.59
2023-01-13T10:30:59.963Z,100797.56
2023-01-13T10:32:05.489Z,100788.94
2023-01-13T10:33:15.290Z,100793.22
2023-01-13T10:34:19.566Z,100788.06
2023-01-13T10:35:59.952Z,100798.47
2023-01-13T10:37:06.768Z,100778.59
2023-01-13T10:38:17.358Z,100789.84
2023-01-13T10:39:21.523Z,100777.63
2023-01-13T10:40:24.251Z,100783.28
2023-01-13T10:41:28.542Z,100774.72
2023-01-13T10:42:31.056Z,100778.03
2023-01-13T10:43:36.769Z,100771.31
2023-01-13T10:45:03.901Z,100779.06
2023-01-13T10:46:18.409Z,100776.91
2023-01-13T10:47:27.300Z,100770.59
2023-01-13T10:48:38.722Z,100779.25
2023-01-13T10:49:41.429Z,100779.91
2023-01-13T10:50:51.489Z,100782.75
2023-01-13T10:51:54.440Z,100775.47
2023-01-13T10:53:32.047Z,100788.28
2023-01-13T10:54:50.345Z,100778.63
2023-01-13T10:56:43.600Z,100783.31
2023-01-13T10:57:49.609Z,100781.63
2023-01-13T10:59:26.213Z,100788.47
2023-01-13T11:00:35.279Z,100776.94
2023-01-13T11:02:25.648Z,100782.91
2023-01-13T11:04:04.619Z,100784.94
2023-01-13T11:05:25.409Z,100778.06
2023-01-13T11:06:33.506Z,100784.00
2023-01-13T11:07:52.935Z,100782.72
2023-01-13T11:09:26.980Z,100782.63
2023-01-13T11:10:32.958Z,100782.44
2023-01-13T11:11:35.613Z,100786.66
2023-01-13T11:12:59.345Z,100785.00
2023-01-13T11:14:29.664Z,100782.31
2023-01-13T11:15:38.163Z,100794.03
2023-01-13T11:16:53.114Z,100789.94
2023-01-13T11:18:05.378Z,100793.09
2023-01-13T11:19:17.231Z,100805.38
2023-01-13T11:20:29.990Z,100793.72
2023-01-13T11:21:41.915Z,100795.16
2023-01-13T11:22:51.657Z,100797.09
2023-01-13T11:24:21.037Z,100801.84
2023-01-13T11:27:15.167Z,100795.34
2023-01-13T11:32:34.625Z,100791.47
2023-01-13T11:33:45.701Z,100787.31
2023-01-13T11:35:17.884Z,100789.56
2023-01-13T11:36:48.125Z,100791.28
2023-01-13T11:38:04.939Z,100788.31
2023-01-13T11:39:21.523Z,100794.53
2023-01-13T11:40:37.870Z,100790.84
2023-01-13T11:41:45.792Z,100790.06
2023-01-13T11:43:18.432Z,100793.47
2023-01-13T11:44:50.917Z,100792.06
2023-01-13T11:46:01.300Z,100786.50
2023-01-13T11:47:04.111Z,100782.84
2023-01-13T11:48:12.854Z,100779.44
2023-01-13T11:49:28.715Z,100775.38
2023-01-13T11:50:42.654Z,100770.31
2023-01-13T11:51:53.389Z,100774.69
2023-01-13T11:53:31.073Z,100774.19
2023-01-13T11:54:48.848Z,100763.72
2023-01-13T11:56:13.363Z,100771.84
2023-01-13T11:57:43.556Z,100772.28
2023-01-13T11:59:00.525Z,100765.00
2023-01-13T12:00:28.598Z,100760.94
2023-01-13T12:01:44.941Z,100775.53
2023-01-13T12:03:14.969Z,100769.41
2023-01-13T12:04:23.130Z,100769.09
2023-01-13T12:05:39.897Z,100770.84
2023-01-13T12:06:43.718Z,100777.75
2023-01-13T12:08:03.595Z,100765.69
2023-01-13T12:09:24.244Z,100767.44
2023-01-13T12:10:35.564Z,100769.88
2023-01-13T12:12:16.764Z,100769.28
2023-01-13T12:13:28.495Z,100766.47
2023-01-13T12:14:50.611Z,100762.50
2023-01-13T12:16:11.890Z,100764.25
2023-01-13T12:17:41.415Z,100758.22
2023-01-13T12:19:07.855Z,100750.63
2023-01-13T12:20:33.112Z,100758.72
2023-01-13T12:21:56.571Z,100769.41
2023-01-13T12:23:04.539Z,100763.69
2023-01-13T12:24:29.774Z,100758.44
2023-01-13T12:25:47.487Z,100753.47
2023-01-13T12:26:56.753Z,100755.69
2023-01-13T12:28:20.412Z,100759.13
2023-01-13T12:29:31.077Z,100754.31
2023-01-13T12:30:45.393Z,100750.16
2023-01-13T12:31:50.664Z,100748.00
2023-01-13T12:32:58.588Z,100744.53
2023-01-13T12:34:13.198Z,100750.25
2023-01-13T12:35:34.562Z,100751.41
2023-01-13T12:36:42.692Z,100744.47
2023-01-13T12:38:16.434Z,100743.38
2023-01-13T12:39:49.030Z,100741.91
2023-01-13T12:41:08.630Z,100741.13
2023-01-13T12:42:39.379Z,100739.59
2023-01-13T12:44:05.052Z,100753.69
2023-01-13T12:45:10.263Z,100746.81
2023-01-13T12:46:21.940Z,100750.00
2023-01-13T12:47:37.426Z,100746.19
2023-01-13T12:48:59.834Z,100742.69
2023-01-13T12:50:36.511Z,100733.50
2023-01-13T12:52:09.599Z,100728.41
2023-01-13T12:53:37.053Z,100728.91
2023-01-13T12:54:57.552Z,100721.44
2023-01-13T12:56:25.277Z,100723.56
2023-01-13T12:57:36.869Z,100723.50
2023-01-13T12:58:46.208Z,100722.69
2023-01-13T13:00:18.820Z,100719.47
2023-01-13T13:01:38.030Z,100717.06
2023-01-13T13:03:18.558Z,100721.94
2023-01-13T13:04:52.225Z,100717.53
2023-01-13T13:06:13.268Z,100716.88
2023-01-13T13:08:01.456Z,100714.16
2023-01-13T13:09:29.394Z,100718.13
2023-01-13T13:10:37.643Z,100713.38
2023-01-13T13:12:03.821Z,100708.63
2023-01-13T13:13:20.376Z,100714.72
2023-01-13T13:14:38.159Z,100714.25
2023-01-13T13:15:41.458Z,100710.38
2023-01-13T13:16:52.147Z,100708.03
2023-01-13T13:18:07.360Z,100705.69
2023-01-13T13:19:40.242Z,100710.69
2023-01-13T13:21:04.717Z,100717.84
2023-01-13T13:22:13.556Z,100717.28
2023-01-13T13:23:40.573Z,100714.44
2023-01-13T13:24:58.044Z,100713.00
2023-01-13T13:26:27.021Z,100702.53
2023-01-13T13:27:59.802Z,100704.06
2023-01-13T13:29:21.141Z,100715.13
2023-01-13T13:30:45.342Z,100712.59
2023-01-13T13:32:03.185Z,100732.41
2023-01-13T13:33:54.561Z,100737.66
2023-01-13T13:35:07.551Z,100743.78
2023-01-13T13:37:02.456Z,100748.81
2023-01-13T13:38:46.067Z,100758.63
2023-01-13T13:40:16.212Z,100763.50
2023-01-13T13:41:42.304Z,100765.16
2023-01-13T13:43:18.005Z,100774.47